createdAt,value
2024-02-08T00:00:51.718Z,96.76
2024-02-08T00:03:19.367Z,97.17
2024-02-08T00:05:47.011Z,96.39
2024-02-08T00:08:16.005Z,96.92
2024-02-08T00:10:44.012Z,96.91
2024-02-08T00:13:14.292Z,97.01
2024-02-08T00:15:42.038Z,96.81
2024-02-08T00:18:09.920Z,96.36
2024-02-08T00:20:37.580Z,96.55
2024-02-08T00:23:05.659Z,97.11
2024-02-08T00:25:34.769Z,96.71
2024-02-08T00:28:02.490Z,96.50
2024-02-08T00:30:30.101Z,97.36
2024-02-08T00:32:57.740Z,96.84
2024-02-08T00:35:26.191Z,97.10
2024-02-08T00:37:53.913Z,97.05
2024-02-08T00:40:21.820Z,96.92
2024-02-08T00:42:50.796Z,96.80
2024-02-08T00:45:23.392Z,96.34
2024-02-08T00:47:52.504Z,96.90
2024-02-08T00:50:22.347Z,96.71
2024-02-08T00:52:50.087Z,96.92
2024-02-08T00:55:17.979Z,96.87
2024-02-08T00:57:45.587Z,97.24
2024-02-08T01:00:15.574Z,97.19
2024-02-08T01:02:44.661Z,97.49
2024-02-08T01:05:12.389Z,96.68
2024-02-08T01:07:40.188Z,97.52
2024-02-08T01:10:08.983Z,96.91
2024-02-08T01:12:36.596Z,97.05
2024-02-08T01:15:05.288Z,96.48
2024-02-08T01:17:34.322Z,96.67
2024-02-08T01:20:02.670Z,96.48
2024-02-08T01:22:30.944Z,96.82
2024-02-08T01:24:58.696Z,96.29
2024-02-08T01:27:26.408Z,97.21
2024-02-08T01:29:59.971Z,96.08
2024-02-08T01:32:29.320Z,96.76
2024-02-08T01:34:59.799Z,96.51
2024-02-08T01:37:27.630Z,97.14
2024-02-08T01:39:55.256Z,97.02
2024-02-08T01:42:22.846Z,96.77
2024-02-08T01:44:56.418Z,97.06
2024-02-08T01:47:24.829Z,96.74
2024-02-08T01:49:52.568Z,97.07
2024-02-08T01:52:22.361Z,96.91
2024-02-08T01:54:50.828Z,96.72
2024-02-08T01:57:18.815Z,97.40
2024-02-08T01:59:48.901Z,97.10
2024-02-08T02:02:17.507Z,97.01
2024-02-08T02:04:45.331Z,97.34
2024-02-08T02:07:12.955Z,96.64
2024-02-08T02:09:42.076Z,97.40
2024-02-08T02:12:13.793Z,97.24
2024-02-08T02:14:41.762Z,96.87
2024-02-08T02:17:13.984Z,96.95
2024-02-08T02:19:42.044Z,97.36
2024-02-08T02:22:12.630Z,97.31
2024-02-08T02:24:41.560Z,97.25
2024-02-08T02:27:10.778Z,96.80
2024-02-08T02:29:40.369Z,97.85
2024-02-08T02:32:11.617Z,97.83
2024-02-08T02:34:42.914Z,98.08
2024-02-08T02:37:13.127Z,97.74
2024-02-08T02:39:40.644Z,97.81
2024-02-08T02:42:08.409Z,98.05
2024-02-08T02:44:36.419Z,97.96
2024-02-08T02:47:05.041Z,97.79
2024-02-08T02:49:38.122Z,97.86
2024-02-08T02:52:09.305Z,97.88
2024-02-08T02:54:41.247Z,98.04
2024-02-08T02:57:09.292Z,98.37
2024-02-08T02:59:38.198Z,98.13
2024-02-08T03:02:06.100Z,98.79
2024-02-08T03:04:33.774Z,99.09
2024-02-08T03:07:01.400Z,98.50
2024-02-08T03:09:29.940Z,98.63
2024-02-08T03:11:59.512Z,98.99
2024-02-08T03:14:27.618Z,98.69
2024-02-08T03:17:01.553Z,98.85
2024-02-08T03:19:30.830Z,98.69
2024-02-08T03:21:58.506Z,98.63
2024-02-08T03:24:26.435Z,99.14
2024-02-08T03:26:56.864Z,99.36
2024-02-08T03:29:25.902Z,99.51
2024-02-08T03:31:53.888Z,98.94
2024-02-08T03:34:25.458Z,98.84
2024-02-08T03:36:53.436Z,98.84
2024-02-08T03:39:27.589Z,99.24
2024-02-08T03:41:59.199Z,98.58
2024-02-08T03:44:31.324Z,98.92
2024-02-08T03:47:06.780Z,98.68
2024-02-08T03:49:34.729Z,98.98
2024-02-08T03:52:03.182Z,99.41
2024-02-08T03:54:31.706Z,98.79
2024-02-08T03:57:06.195Z,99.69
2024-02-08T03:59:42.151Z,99.83
2024-02-08T04:02:12.223Z,99.36
2024-02-08T04:04:54.889Z,99.02
2024-02-08T04:07:24.235Z,99.27
2024-02-08T04:09:57.013Z,99.70
2024-02-08T04:12:43.146Z,99.56
2024-02-08T04:15:30.500Z,99.63
2024-02-08T04:18:16.002Z,99.22
2024-02-08T04:21:01.215Z,98.99
2024-02-08T04:23:46.616Z,99.57
2024-02-08T04:26:31.922Z,99.72
2024-02-08T04:29:17.384Z,99.31
2024-02-08T04:32:05.476Z,99.90
2024-02-08T04:34:50.881Z,100.00
2024-02-08T04:37:41.652Z,99.60
2024-02-08T04:40:29.057Z,100.00
2024-02-08T04:43:15.732Z,100.00
2024-02-08T04:46:01.039Z,100.00
2024-02-08T04:48:47.864Z,100.00
2024-02-08T04:51:33.201Z,100.00
2024-02-08T04:54:03.481Z,100.00
2024-02-08T04:56:31.298Z,100.00
2024-02-08T04:59:19.972Z,99.75
2024-02-08T05:01:47.630Z,100.00
2024-02-08T05:04:22.287Z,99.72
2024-02-08T05:06:50.702Z,100.00
2024-02-08T05:09:20.555Z,100.00
2024-02-08T05:11:50.184Z,99.94
2024-02-08T05:14:20.705Z,100.00
2024-02-08T05:16:48.386Z,100.00
2024-02-08T05:19:17.444Z,100.00
2024-02-08T05:21:45.237Z,100.00
2024-02-08T05:24:14.742Z,100.00
2024-02-08T05:26:42.725Z,100.00
2024-02-08T05:29:10.516Z,100.00
2024-02-08T05:31:40.786Z,100.00
2024-02-08T05:34:16.737Z,100.00
2024-02-08T05:36:50.295Z,100.00
2024-02-08T05:39:26.219Z,100.00
2024-02-08T05:41:56.928Z,100.00
2024-02-08T05:44:31.247Z,100.00
2024-02-08T05:47:09.784Z,100.00
2024-02-08T05:49:39.218Z,100.00
2024-02-08T05:52:09.320Z,100.00
2024-02-08T05:54:41.038Z,100.00
2024-02-08T05:57:12.825Z,100.00
2024-02-08T05:59:41.076Z,100.00
2024-02-08T06:02:16.528Z,100.00
2024-02-08T06:04:52.451Z,100.00
2024-02-08T06:07:22.772Z,100.00
2024-02-08T06:09:56.619Z,100.00
2024-02-08T06:12:29.851Z,100.00
2024-02-08T06:15:00.609Z,100.00
2024-02-08T06:17:33.268Z,100.00
2024-02-08T06:20:10.161Z,100.00
2024-02-08T06:22:41.056Z,100.00
2024-02-08T06:25:10.511Z,100.00
2024-02-08T06:27:38.348Z,100.00
2024-02-08T06:30:10.767Z,100.00
2024-02-08T06:32:45.062Z,100.00
2024-02-08T06:35:20.860Z,100.00
2024-02-08T06:37:57.807Z,100.00
2024-02-08T06:40:38.462Z,100.00
2024-02-08T06:43:28.468Z,100.00
2024-02-08T06:46:10.177Z,100.00
2024-02-08T06:48:49.756Z,100.00
2024-02-08T06:51:46.890Z,100.00
2024-02-08T06:54:33.862Z,100.00
2024-02-08T06:57:19.206Z,100.00
2024-02-08T07:00:04.617Z,100.00
2024-02-08T07:02:50.133Z,100.00
2024-02-08T07:05:35.587Z,99.81
2024-02-08T07:08:20.899Z,100.00
2024-02-08T07:11:07.209Z,100.00
2024-02-08T07:13:52.635Z,100.00
2024-02-08T07:16:38.087Z,100.00
2024-02-08T07:19:23.714Z,100.00
2024-02-08T07:22:09.066Z,100.00
2024-02-08T07:24:54.176Z,100.00
2024-02-08T07:27:42.052Z,99.31
2024-02-08T07:30:28.554Z,99.77
2024-02-08T07:33:13.941Z,99.52
2024-02-08T07:35:59.474Z,99.68
2024-02-08T07:38:54.804Z,99.81
2024-02-08T07:41:22.521Z,99.94
2024-02-08T07:43:56.027Z,100.00
2024-02-08T07:46:31.777Z,99.58
2024-02-08T07:49:06.164Z,100.00
2024-02-08T07:51:35.054Z,100.00
2024-02-08T07:54:11.604Z,99.53
2024-02-08T07:56:47.326Z,99.40
2024-02-08T07:59:18.182Z,98.83
2024-02-08T08:01:51.526Z,99.14
2024-02-08T08:04:43.696Z,99.32
2024-02-08T08:07:13.758Z,99.18
2024-02-08T08:09:42.631Z,99.08
2024-02-08T08:12:10.447Z,99.06
2024-02-08T08:14:53.430Z,99.29
2024-02-08T08:17:40.870Z,99.42
2024-02-08T08:20:37.830Z,99.53
2024-02-08T08:23:09.399Z,99.66
2024-02-08T08:26:01.246Z,99.60
2024-02-08T08:28:42.254Z,99.42
2024-02-08T08:31:31.455Z,99.39
2024-02-08T08:34:05.272Z,99.20
2024-02-08T08:36:35.829Z,98.55
2024-02-08T08:39:21.053Z,98.33
2024-02-08T08:41:50.058Z,98.54
2024-02-08T08:44:19.703Z,98.31
2024-02-08T08:46:49.169Z,98.59
2024-02-08T08:49:22.161Z,98.51
2024-02-08T08:51:59.808Z,98.04
2024-02-08T08:54:30.555Z,97.95
2024-02-08T08:56:58.958Z,97.36
2024-02-08T08:59:28.207Z,98.01
2024-02-08T09:02:01.779Z,97.59
2024-02-08T09:04:34.269Z,97.12
2024-02-08T09:07:11.654Z,97.03
2024-02-08T09:10:02.608Z,97.03
2024-02-08T09:12:37.792Z,96.02
2024-02-08T09:15:20.521Z,96.02
2024-02-08T09:17:59.473Z,95.50
2024-02-08T09:20:30.050Z,96.23
2024-02-08T09:22:59.213Z,96.45
2024-02-08T09:25:35.487Z,96.59
2024-02-08T09:28:25.770Z,96.32
2024-02-08T09:30:55.085Z,96.43
2024-02-08T09:33:46.924Z,96.50
2024-02-08T09:36:16.164Z,96.88
2024-02-08T09:38:51.972Z,96.31
2024-02-08T09:41:25.447Z,96.12
2024-02-08T09:43:57.668Z,96.16
2024-02-08T09:46:45.562Z,95.85
2024-02-08T09:49:16.237Z,95.42
2024-02-08T09:51:53.431Z,96.07
2024-02-08T09:54:28.592Z,95.31
2024-02-08T09:57:02.394Z,96.42
2024-02-08T10:00:00.867Z,95.12
2024-02-08T10:02:35.400Z,95.04
2024-02-08T10:05:19.901Z,95.20
2024-02-08T10:08:06.251Z,94.51
2024-02-08T10:10:44.947Z,94.72
2024-02-08T10:13:28.143Z,93.95
2024-02-08T10:15:57.832Z,93.89
2024-02-08T10:18:35.035Z,94.26
2024-02-08T10:21:15.455Z,93.91
2024-02-08T10:23:49.622Z,93.51
2024-02-08T10:26:28.070Z,93.94
2024-02-08T10:28:57.230Z,93.53
2024-02-08T10:31:25.250Z,92.71
2024-02-08T10:33:58.929Z,92.31
2024-02-08T10:36:36.569Z,93.24
2024-02-08T10:39:24.895Z,92.39
2024-02-08T10:42:00.223Z,93.34
2024-02-08T10:44:30.923Z,93.59
2024-02-08T10:47:07.438Z,91.79
2024-02-08T10:49:45.945Z,91.30
2024-02-08T10:52:22.452Z,92.16
2024-02-08T10:54:52.938Z,91.09
2024-02-08T10:57:58.399Z,91.40
2024-02-08T11:00:42.052Z,89.98
2024-02-08T11:03:15.997Z,90.79
2024-02-08T11:06:01.640Z,90.76
2024-02-08T11:08:35.655Z,90.48
2024-02-08T11:11:10.607Z,89.12
2024-02-08T11:13:41.652Z,89.07
2024-02-08T11:16:21.050Z,89.96
2024-02-08T11:18:52.677Z,89.28
2024-02-08T11:21:25.480Z,90.60
2024-02-08T11:23:54.948Z,89.27
2024-02-08T11:26:27.102Z,87.93
2024-02-08T11:29:06.244Z,87.49
2024-02-08T11:31:42.886Z,88.56
2024-02-08T11:34:15.412Z,88.56
2024-02-08T11:36:44.592Z,87.18
2024-02-08T11:39:33.003Z,88.30
2024-02-08T11:42:06.455Z,87.45
2024-02-08T11:44:38.404Z,87.12
2024-02-08T11:47:20.232Z,86.59
2024-02-08T11:49:55.396Z,87.10
2024-02-08T11:52:25.197Z,86.67
2024-02-08T11:55:10.303Z,85.13
2024-02-08T11:57:42.779Z,84.63
2024-02-08T12:00:18.625Z,84.83
2024-02-08T12:02:49.458Z,85.12
2024-02-08T12:05:21.559Z,85.42
2024-02-08T12:07:49.865Z,84.95
2024-02-08T12:10:23.182Z,84.71
2024-02-08T12:12:54.350Z,84.34
2024-02-08T12:15:22.970Z,84.16
2024-02-08T12:17:54.056Z,84.45
2024-02-08T12:20:22.047Z,84.91
2024-02-08T12:22:56.469Z,83.33
2024-02-08T12:25:28.947Z,84.92
2024-02-08T12:27:59.104Z,84.80
2024-02-08T12:30:29.566Z,84.74
2024-02-08T12:32:57.672Z,84.16
2024-02-08T12:35:27.418Z,84.83
2024-02-08T12:37:59.916Z,84.73
2024-02-08T12:40:30.719Z,84.83
2024-02-08T12:42:58.867Z,84.39
2024-02-08T12:45:29.793Z,85.80
2024-02-08T12:47:59.030Z,85.75
2024-02-08T12:50:28.832Z,86.01
2024-02-08T12:52:58.927Z,85.64
2024-02-08T12:55:31.466Z,85.33
2024-02-08T12:58:02.987Z,85.16
2024-02-08T13:00:34.686Z,86.40
2024-02-08T13:03:07.013Z,85.98
2024-02-08T13:05:39.453Z,86.24
2024-02-08T13:08:09.255Z,85.08
2024-02-08T13:10:41.085Z,86.95
2024-02-08T13:13:12.685Z,85.07
2024-02-08T13:15:43.154Z,86.62
2024-02-08T13:18:14.616Z,84.14
2024-02-08T13:20:44.656Z,86.72
2024-02-08T13:23:13.231Z,85.60
2024-02-08T13:25:44.119Z,86.41
2024-02-08T13:28:12.535Z,87.06
2024-02-08T13:30:41.430Z,87.37
2024-02-08T13:33:11.937Z,88.82
2024-02-08T13:35:42.817Z,88.74
2024-02-08T13:38:12.878Z,89.68
2024-02-08T13:40:45.843Z,90.12
2024-02-08T13:43:15.341Z,90.88
2024-02-08T13:45:43.730Z,91.40
2024-02-08T13:48:16.155Z,91.03
2024-02-08T13:50:45.187Z,91.81
2024-02-08T13:53:16.061Z,91.68
2024-02-08T13:55:53.837Z,92.42
2024-02-08T13:58:25.816Z,93.51
2024-02-08T14:00:56.089Z,93.93
2024-02-08T14:03:25.801Z,93.06
2024-02-08T14:05:56.764Z,92.27
2024-02-08T14:08:28.916Z,92.92
2024-02-08T14:10:59.364Z,92.69
2024-02-08T14:13:37.078Z,93.28
2024-02-08T14:16:15.635Z,93.13
2024-02-08T14:18:50.602Z,92.83
2024-02-08T14:21:21.672Z,92.63
2024-02-08T14:23:52.468Z,92.77
2024-02-08T14:26:35.098Z,93.74
2024-02-08T14:29:05.496Z,92.81
2024-02-08T14:31:38.645Z,93.51
2024-02-08T14:34:09.955Z,93.10
2024-02-08T14:36:43.370Z,93.47
2024-02-08T14:39:28.632Z,93.78
2024-02-08T14:41:59.841Z,93.37
2024-02-08T14:44:32.878Z,93.60
2024-02-08T14:47:00.932Z,93.62
2024-02-08T14:49:30.415Z,94.08
2024-02-08T14:52:03.922Z,94.47
2024-02-08T14:54:32.823Z,93.52
2024-02-08T14:57:10.946Z,93.40
2024-02-08T14:59:51.254Z,94.27
2024-02-08T15:02:24.119Z,94.98
2024-02-08T15:04:55.090Z,94.52
2024-02-08T15:07:45.609Z,94.68
2024-02-08T15:10:15.294Z,95.09
2024-02-08T15:12:53.371Z,94.30
2024-02-08T15:15:31.915Z,94.31
2024-02-08T15:18:12.633Z,94.59
2024-02-08T15:20:45.914Z,95.24
2024-02-08T15:23:13.209Z,95.23
2024-02-08T15:25:45.634Z,95.80
2024-02-08T15:28:35.435Z,95.19
2024-02-08T15:31:17.911Z,96.28
2024-02-08T15:34:09.607Z,96.53
2024-02-08T15:36:48.983Z,95.40
2024-02-08T15:39:50.679Z,96.00
2024-02-08T15:42:33.548Z,95.79
2024-02-08T15:45:11.644Z,96.18
2024-02-08T15:47:56.144Z,95.52
2024-02-08T15:50:36.320Z,95.45
2024-02-08T15:53:10.133Z,95.96
2024-02-08T15:55:43.753Z,96.88
2024-02-08T15:58:29.199Z,95.62
2024-02-08T16:01:18.041Z,95.84
2024-02-08T16:03:56.751Z,96.08
2024-02-08T16:06:39.759Z,96.73
2024-02-08T16:09:08.944Z,96.21
2024-02-08T16:11:36.752Z,96.47
2024-02-08T16:14:17.000Z,96.74
2024-02-08T16:17:06.588Z,95.83
2024-02-08T16:19:43.492Z,96.34
2024-02-08T16:22:20.629Z,96.21
2024-02-08T16:24:50.557Z,96.66
2024-02-08T16:27:20.384Z,96.53
2024-02-08T16:30:00.052Z,95.80
2024-02-08T16:32:36.491Z,96.58
2024-02-08T16:35:25.127Z,96.65
2024-02-08T16:37:53.235Z,96.12
2024-02-08T16:40:30.254Z,95.94
2024-02-08T16:43:11.660Z,96.87
2024-02-08T16:45:45.709Z,96.45
2024-02-08T16:48:24.749Z,96.82
2024-02-08T16:50:58.294Z,96.12
2024-02-08T16:53:27.874Z,95.91
2024-02-08T16:55:59.859Z,95.67
2024-02-08T16:58:33.293Z,95.93
2024-02-08T17:01:06.029Z,95.98
2024-02-08T17:04:00.974Z,95.41
2024-02-08T17:06:35.569Z,96.09
2024-02-08T17:09:16.951Z,95.95
2024-02-08T17:11:45.826Z,96.20
2024-02-08T17:14:34.750Z,95.46
2024-02-08T17:17:09.932Z,95.46
2024-02-08T17:19:58.617Z,95.92
2024-02-08T17:22:46.863Z,95.42
2024-02-08T17:25:26.507Z,95.68
2024-02-08T17:28:15.725Z,94.59
2024-02-08T17:31:01.388Z,94.26
2024-02-08T17:33:31.813Z,94.43
2024-02-08T17:36:01.738Z,94.60
2024-02-08T17:38:40.505Z,94.12
2024-02-08T17:41:15.119Z,93.99
2024-02-08T17:43:50.742Z,93.94
2024-02-08T17:46:22.366Z,94.35
2024-02-08T17:48:51.861Z,94.65
2024-02-08T17:51:32.768Z,94.82
2024-02-08T17:54:01.752Z,93.51
2024-02-08T17:56:33.113Z,93.41
2024-02-08T18:01:49.472Z,94.45
2024-02-08T18:04:18.481Z,93.74
2024-02-08T18:06:50.462Z,93.44
2024-02-08T18:09:18.727Z,93.88
2024-02-08T18:11:50.894Z,94.14
2024-02-08T18:14:19.274Z,93.70
2024-02-08T18:16:48.002Z,93.47
2024-02-08T18:19:16.679Z,92.96
2024-02-08T18:21:46.078Z,92.92
2024-02-08T18:24:15.001Z,92.59
2024-02-08T18:26:45.394Z,93.14
2024-02-08T18:29:14.222Z,92.84
2024-02-08T18:31:47.765Z,93.14
2024-02-08T18:34:16.551Z,93.15
2024-02-08T18:36:46.293Z,92.26
2024-02-08T18:39:26.934Z,93.08
2024-02-08T18:41:56.530Z,92.74
2024-02-08T18:44:24.168Z,92.22
2024-02-08T18:46:53.481Z,92.15
2024-02-08T18:49:22.858Z,92.79
2024-02-08T18:51:50.738Z,93.42
2024-02-08T18:54:29.775Z,93.37
2024-02-08T18:57:00.085Z,92.92
2024-02-08T18:59:27.698Z,93.21
2024-02-08T19:02:05.268Z,92.89
2024-02-08T19:04:33.767Z,93.01
2024-02-08T19:07:02.047Z,93.06
2024-02-08T19:09:32.202Z,93.23
2024-02-08T19:11:59.848Z,93.41
2024-02-08T19:14:27.959Z,93.21
2024-02-08T19:16:55.690Z,93.20
2024-02-08T19:19:24.294Z,93.47
2024-02-08T19:21:54.604Z,92.81
2024-02-08T19:24:23.664Z,93.76
2024-02-08T19:26:52.689Z,93.70
2024-02-08T19:29:25.384Z,93.63
2024-02-08T19:31:53.367Z,93.48
2024-02-08T19:34:22.470Z,93.66
2024-02-08T19:36:54.218Z,93.57
2024-02-08T19:39:37.439Z,93.63
2024-02-08T19:42:19.046Z,93.49
2024-02-08T19:44:53.920Z,93.04
2024-02-08T19:50:02.807Z,92.71
2024-02-08T19:52:35.941Z,92.76
2024-02-08T19:55:04.657Z,92.25
2024-02-08T19:57:40.752Z,92.58
2024-02-08T20:00:18.395Z,93.03
2024-02-08T20:02:48.034Z,92.25
2024-02-08T20:05:15.895Z,92.88
2024-02-08T20:07:45.447Z,92.36
2024-02-08T20:10:14.448Z,93.02
2024-02-08T20:12:45.680Z,92.71
2024-02-08T20:15:22.470Z,92.88
2024-02-08T20:17:52.043Z,92.06
2024-02-08T20:20:22.165Z,92.50
2024-02-08T20:22:53.053Z,92.80
2024-02-08T20:25:26.147Z,92.89
2024-02-08T20:27:58.085Z,92.75
2024-02-08T20:30:26.316Z,93.03
2024-02-08T20:32:54.782Z,92.38
2024-02-08T20:35:22.471Z,93.28
2024-02-08T20:37:52.734Z,93.63
2024-02-08T20:40:23.298Z,93.56
2024-02-08T20:42:54.804Z,92.82
2024-02-08T20:45:28.023Z,93.10
2024-02-08T20:47:55.865Z,93.13
2024-02-08T20:50:25.680Z,92.80
2024-02-08T20:52:55.720Z,93.40
2024-02-08T20:55:26.006Z,92.74
2024-02-08T20:57:54.368Z,93.06
2024-02-08T21:00:23.914Z,92.49
2024-02-08T21:02:54.207Z,93.11
2024-02-08T21:05:23.955Z,93.08
2024-02-08T21:07:51.664Z,92.83
2024-02-08T21:10:23.636Z,93.16
2024-02-08T21:12:51.440Z,92.96
2024-02-08T21:15:20.131Z,92.94
2024-02-08T21:17:48.147Z,92.53
2024-02-08T21:20:17.960Z,92.62
2024-02-08T21:22:47.740Z,93.19
2024-02-08T21:25:19.803Z,92.20
2024-02-08T21:27:53.384Z,92.67
2024-02-08T21:30:21.838Z,92.81
2024-02-08T21:32:50.482Z,93.08
2024-02-08T21:35:20.157Z,93.02
2024-02-08T21:37:48.236Z,92.61
2024-02-08T21:40:16.350Z,92.12
2024-02-08T21:42:45.701Z,92.42
2024-02-08T21:45:16.390Z,92.04
2024-02-08T21:47:43.980Z,92.93
2024-02-08T21:50:12.013Z,92.54
2024-02-08T21:52:41.193Z,93.16
2024-02-08T21:55:09.589Z,92.38
2024-02-08T21:57:37.428Z,92.91
2024-02-08T22:00:12.358Z,93.32
2024-02-08T22:02:41.651Z,92.72
2024-02-08T22:05:11.215Z,93.01
2024-02-08T22:07:40.279Z,93.15
2024-02-08T22:10:13.316Z,92.94
2024-02-08T22:12:46.164Z,93.28
2024-02-08T22:15:18.989Z,92.56
2024-02-08T22:17:48.614Z,92.77
2024-02-08T22:20:17.197Z,92.95
2024-02-08T22:22:46.438Z,92.84
2024-02-08T22:25:18.030Z,93.05
2024-02-08T22:27:46.593Z,92.81
2024-02-08T22:30:15.888Z,92.38
2024-02-08T22:32:45.499Z,93.02
2024-02-08T22:35:13.358Z,92.28
2024-02-08T22:37:43.834Z,92.57
2024-02-08T22:40:12.420Z,92.95
2024-02-08T22:42:42.619Z,92.89
2024-02-08T22:45:12.699Z,92.89
2024-02-08T22:47:41.205Z,92.85
2024-02-08T22:50:13.674Z,92.88
2024-02-08T22:52:42.696Z,92.57
2024-02-08T22:55:12.442Z,92.44
2024-02-08T22:57:41.439Z,92.85
2024-02-08T23:00:23.839Z,91.91
2024-02-08T23:02:52.011Z,92.87
2024-02-08T23:05:19.986Z,92.05
2024-02-08T23:07:48.646Z,92.20
2024-02-08T23:10:19.368Z,91.91
2024-02-08T23:12:49.299Z,92.58
2024-02-08T23:15:21.006Z,92.36
2024-02-08T23:17:51.876Z,92.10
2024-02-08T23:20:20.006Z,92.73
2024-02-08T23:22:48.802Z,92.01
2024-02-08T23:25:18.117Z,92.13
2024-02-08T23:27:49.035Z,92.45
2024-02-08T23:30:19.801Z,92.05
2024-02-08T23:32:52.648Z,92.42
2024-02-08T23:35:23.772Z,92.93
2024-02-08T23:37:56.711Z,92.71
2024-02-08T23:40:27.807Z,93.11
2024-02-08T23:42:57.255Z,92.53
2024-02-08T23:45:26.443Z,92.50
2024-02-08T23:47:56.108Z,92.30
2024-02-08T23:50:25.263Z,92.43
2024-02-08T23:52:54.244Z,93.09
2024-02-08T23:55:24.490Z,93.49
2024-02-08T23:57:52.212Z,93.41
